sensor_id;sensor_type;location;lat;lon;timestamp;temperature;humidity
53264;DHT22;39153;52.680;6.172;2024-03-07T00:00:57;5.10;99.90
53264;DHT22;39153;52.680;6.172;2024-03-07T00:03:25;5.10;99.90
53264;DHT22;39153;52.680;6.172;2024-03-07T00:05:51;5.10;99.90
53264;DHT22;39153;52.680;6.172;2024-03-07T00:08:17;5.00;99.90
53264;DHT22;39153;52.680;6.172;2024-03-07T00:10:43;5.00;99.90
53264;DHT22;39153;52.680;6.172;2024-03-07T00:13:09;5.00;99.90
53264;DHT22;39153;52.680;6.172;2024-03-07T00:15:35;5.00;99.90
53264;DHT22;39153;52.680;6.172;2024-03-07T00:18:02;5.00;99.90
53264;DHT22;39153;52.680;6.172;2024-03-07T00:20:28;4.90;99.90
53264;DHT22;39153;52.680;6.172;2024-03-07T00:22:54;5.10;99.90
53264;DHT22;39153;52.680;6.172;2024-03-07T00:25:19;5.00;99.90
53264;DHT22;39153;52.680;6.172;2024-03-07T00:27:45;4.90;99.90
53264;DHT22;39153;52.680;6.172;2024-03-07T00:30:11;4.90;99.90
53264;DHT22;39153;52.680;6.172;2024-03-07T00:32:39;4.90;99.90
53264;DHT22;39153;52.680;6.172;2024-03-07T00:35:06;4.90;99.90
53264;DHT22;39153;52.680;6.172;2024-03-07T00:37:34;4.90;99.90
53264;DHT22;39153;52.680;6.172;2024-03-07T00:40:00;5.00;99.90
53264;DHT22;39153;52.680;6.172;2024-03-07T00:42:26;4.90;99.90
53264;DHT22;39153;52.680;6.172;2024-03-07T00:44:52;4.80;99.90
53264;DHT22;39153;52.680;6.172;2024-03-07T00:47:18;4.90;99.90
53264;DHT22;39153;52.680;6.172;2024-03-07T00:49:44;4.70;99.90
53264;DHT22;39153;52.680;6.172;2024-03-07T00:52:14;4.80;99.90
53264;DHT22;39153;52.680;6.172;2024-03-07T00:54:41;4.70;99.90
53264;DHT22;39153;52.680;6.172;2024-03-07T00:57:07;4.70;99.90
53264;DHT22;39153;52.680;6.172;2024-03-07T00:59:33;4.80;99.90
53264;DHT22;39153;52.680;6.172;2024-03-07T01:01:59;4.60;99.90
53264;DHT22;39153;52.680;6.172;2024-03-07T01:04:25;4.70;99.90
53264;DHT22;39153;52.680;6.172;2024-03-07T01:06:57;4.80;99.90
53264;DHT22;39153;52.680;6.172;2024-03-07T01:09:23;4.70;99.90
53264;DHT22;39153;52.680;6.172;2024-03-07T01:11:49;4.60;99.90
53264;DHT22;39153;52.680;6.172;2024-03-07T01:14:15;4.70;99.90
53264;DHT22;39153;52.680;6.172;2024-03-07T01:16:40;4.60;99.90
53264;DHT22;39153;52.680;6.172;2024-03-07T01:19:07;4.60;99.90
53264;DHT22;39153;52.680;6.172;2024-03-07T01:21:34;4.50;99.90
53264;DHT22;39153;52.680;6.172;2024-03-07T01:24:00;4.40;99.90
53264;DHT22;39153;52.680;6.172;2024-03-07T01:26:28;4.50;99.90
53264;DHT22;39153;52.680;6.172;2024-03-07T01:28:55;4.60;99.90
53264;DHT22;39153;52.680;6.172;2024-03-07T01:31:22;4.50;99.90
53264;DHT22;39153;52.680;6.172;2024-03-07T01:33:47;4.40;99.90
53264;DHT22;39153;52.680;6.172;2024-03-07T01:36:13;4.40;99.90
53264;DHT22;39153;52.680;6.172;2024-03-07T01:38:39;4.40;99.90
53264;DHT22;39153;52.680;6.172;2024-03-07T01:41:05;4.50;99.90
53264;DHT22;39153;52.680;6.172;2024-03-07T01:43:30;4.40;99.90
53264;DHT22;39153;52.680;6.172;2024-03-07T01:45:57;4.50;99.90
53264;DHT22;39153;52.680;6.172;2024-03-07T01:48:27;4.50;99.90
53264;DHT22;39153;52.680;6.172;2024-03-07T01:50:57;4.40;99.90
53264;DHT22;39153;52.680;6.172;2024-03-07T01:53:24;4.30;99.90
53264;DHT22;39153;52.680;6.172;2024-03-07T01:55:51;4.40;99.90
53264;DHT22;39153;52.680;6.172;2024-03-07T01:58:21;4.40;99.90
53264;DHT22;39153;52.680;6.172;2024-03-07T02:00:47;4.30;99.90
53264;DHT22;39153;52.680;6.172;2024-03-07T02:03:13;4.40;99.90
53264;DHT22;39153;52.680;6.172;2024-03-07T02:05:42;4.30;99.90
53264;DHT22;39153;52.680;6.172;2024-03-07T02:08:08;4.30;99.90
53264;DHT22;39153;52.680;6.172;2024-03-07T02:10:34;4.20;99.90
53264;DHT22;39153;52.680;6.172;2024-03-07T02:13:00;4.20;99.90
53264;DHT22;39153;52.680;6.172;2024-03-07T02:15:27;4.40;99.90
53264;DHT22;39153;52.680;6.172;2024-03-07T02:17:53;4.20;99.90
53264;DHT22;39153;52.680;6.172;2024-03-07T02:20:19;4.20;99.90
53264;DHT22;39153;52.680;6.172;2024-03-07T02:22:44;4.20;99.90
53264;DHT22;39153;52.680;6.172;2024-03-07T02:25:10;4.30;99.90
53264;DHT22;39153;52.680;6.172;2024-03-07T02:27:37;4.20;99.90
53264;DHT22;39153;52.680;6.172;2024-03-07T02:30:04;4.10;99.90
53264;DHT22;39153;52.680;6.172;2024-03-07T02:32:31;4.20;99.90
53264;DHT22;39153;52.680;6.172;2024-03-07T02:34:57;4.00;99.90
53264;DHT22;39153;52.680;6.172;2024-03-07T02:37:22;4.10;99.90
53264;DHT22;39153;52.680;6.172;2024-03-07T02:39:48;4.00;99.90
53264;DHT22;39153;52.680;6.172;2024-03-07T02:42:14;4.10;99.90
53264;DHT22;39153;52.680;6.172;2024-03-07T02:44:40;4.10;99.90
53264;DHT22;39153;52.680;6.172;2024-03-07T02:47:06;4.00;99.90
53264;DHT22;39153;52.680;6.172;2024-03-07T02:49:32;4.10;99.90
53264;DHT22;39153;52.680;6.172;2024-03-07T02:51:58;4.00;99.90
53264;DHT22;39153;52.680;6.172;2024-03-07T02:54:23;3.90;99.90
53264;DHT22;39153;52.680;6.172;2024-03-07T02:56:49;3.90;99.90
53264;DHT22;39153;52.680;6.172;2024-03-07T02:59:15;3.80;99.90
53264;DHT22;39153;52.680;6.172;2024-03-07T03:01:42;3.90;99.90
53264;DHT22;39153;52.680;6.172;2024-03-07T03:04:08;3.80;99.90
53264;DHT22;39153;52.680;6.172;2024-03-07T03:06:33;3.80;99.90
53264;DHT22;39153;52.680;6.172;2024-03-07T03:08:59;3.80;99.90
53264;DHT22;39153;52.680;6.172;2024-03-07T03:11:25;3.80;99.90
53264;DHT22;39153;52.680;6.172;2024-03-07T03:13:51;3.80;99.90
53264;DHT22;39153;52.680;6.172;2024-03-07T03:16:17;3.70;99.90
53264;DHT22;39153;52.680;6.172;2024-03-07T03:18:43;3.70;99.90
53264;DHT22;39153;52.680;6.172;2024-03-07T03:21:09;3.70;99.90
53264;DHT22;39153;52.680;6.172;2024-03-07T03:23:34;3.70;99.90
53264;DHT22;39153;52.680;6.172;2024-03-07T03:26:01;3.70;99.90
53264;DHT22;39153;52.680;6.172;2024-03-07T03:28:26;3.60;99.90
53264;DHT22;39153;52.680;6.172;2024-03-07T03:30:52;3.50;99.90
53264;DHT22;39153;52.680;6.172;2024-03-07T03:33:18;3.50;99.90
53264;DHT22;39153;52.680;6.172;2024-03-07T03:35:46;3.60;99.90
53264;DHT22;39153;52.680;6.172;2024-03-07T03:38:12;3.50;99.90
53264;DHT22;39153;52.680;6.172;2024-03-07T03:40:38;3.50;99.90
53264;DHT22;39153;52.680;6.172;2024-03-07T03:43:04;3.50;99.90
53264;DHT22;39153;52.680;6.172;2024-03-07T03:45:30;3.40;99.90
53264;DHT22;39153;52.680;6.172;2024-03-07T03:47:57;4.30;99.90
53264;DHT22;39153;52.680;6.172;2024-03-07T03:50:23;3.40;99.90
53264;DHT22;39153;52.680;6.172;2024-03-07T03:52:49;3.40;99.90
53264;DHT22;39153;52.680;6.172;2024-03-07T03:55:15;3.50;99.90
53264;DHT22;39153;52.680;6.172;2024-03-07T03:57:42;3.30;99.90
53264;DHT22;39153;52.680;6.172;2024-03-07T04:00:09;3.30;99.90
53264;DHT22;39153;52.680;6.172;2024-03-07T04:02:45;4.00;99.90
53264;DHT22;39153;52.680;6.172;2024-03-07T04:05:14;3.30;99.90
53264;DHT22;39153;52.680;6.172;2024-03-07T04:07:41;3.30;99.90
53264;DHT22;39153;52.680;6.172;2024-03-07T04:10:08;3.20;99.90
53264;DHT22;39153;52.680;6.172;2024-03-07T04:12:35;3.20;99.90
53264;DHT22;39153;52.680;6.172;2024-03-07T04:15:03;3.10;99.90
53264;DHT22;39153;52.680;6.172;2024-03-07T04:17:29;3.30;99.90
53264;DHT22;39153;52.680;6.172;2024-03-07T04:19:56;3.20;99.90
53264;DHT22;39153;52.680;6.172;2024-03-07T04:22:24;3.20;99.90
53264;DHT22;39153;52.680;6.172;2024-03-07T04:24:50;3.20;99.90
53264;DHT22;39153;52.680;6.172;2024-03-07T04:27:19;3.20;99.90
53264;DHT22;39153;52.680;6.172;2024-03-07T04:29:46;3.00;99.90
53264;DHT22;39153;52.680;6.172;2024-03-07T04:32:15;3.00;99.90
53264;DHT22;39153;52.680;6.172;2024-03-07T04:34:43;3.00;99.90
53264;DHT22;39153;52.680;6.172;2024-03-07T04:37:08;3.10;99.90
53264;DHT22;39153;52.680;6.172;2024-03-07T04:39:34;3.00;99.90
53264;DHT22;39153;52.680;6.172;2024-03-07T04:42:03;3.00;99.90
53264;DHT22;39153;52.680;6.172;2024-03-07T04:44:30;3.00;99.90
53264;DHT22;39153;52.680;6.172;2024-03-07T04:46:58;3.00;99.90
53264;DHT22;39153;52.680;6.172;2024-03-07T04:49:25;3.00;99.90
53264;DHT22;39153;52.680;6.172;2024-03-07T04:51:51;3.00;99.90
53264;DHT22;39153;52.680;6.172;2024-03-07T04:54:18;2.90;99.90
53264;DHT22;39153;52.680;6.172;2024-03-07T04:56:45;2.90;99.90
53264;DHT22;39153;52.680;6.172;2024-03-07T04:59:11;2.90;99.90
53264;DHT22;39153;52.680;6.172;2024-03-07T05:01:38;2.70;99.90
53264;DHT22;39153;52.680;6.172;2024-03-07T05:04:04;2.80;99.90
53264;DHT22;39153;52.680;6.172;2024-03-07T05:06:30;2.80;99.90
53264;DHT22;39153;52.680;6.172;2024-03-07T05:08:59;2.70;99.90
53264;DHT22;39153;52.680;6.172;2024-03-07T05:11:27;2.70;99.90
53264;DHT22;39153;52.680;6.172;2024-03-07T05:13:53;2.70;99.90
53264;DHT22;39153;52.680;6.172;2024-03-07T05:16:19;2.70;99.90
53264;DHT22;39153;52.680;6.172;2024-03-07T05:18:45;2.60;99.90
53264;DHT22;39153;52.680;6.172;2024-03-07T05:21:11;2.60;99.90
53264;DHT22;39153;52.680;6.172;2024-03-07T05:24:15;2.70;99.90
53264;DHT22;39153;52.680;6.172;2024-03-07T05:26:41;2.60;99.90
53264;DHT22;39153;52.680;6.172;2024-03-07T05:29:08;2.60;99.90
53264;DHT22;39153;52.680;6.172;2024-03-07T05:31:36;2.50;99.90
53264;DHT22;39153;52.680;6.172;2024-03-07T05:34:05;2.50;99.90
53264;DHT22;39153;52.680;6.172;2024-03-07T05:36:35;2.50;99.90
53264;DHT22;39153;52.680;6.172;2024-03-07T05:39:01;2.50;99.90
53264;DHT22;39153;52.680;6.172;2024-03-07T05:41:34;2.60;99.90
53264;DHT22;39153;52.680;6.172;2024-03-07T05:43:59;2.40;99.90
53264;DHT22;39153;52.680;6.172;2024-03-07T05:46:26;2.40;99.90
53264;DHT22;39153;52.680;6.172;2024-03-07T05:48:51;2.40;99.90
53264;DHT22;39153;52.680;6.172;2024-03-07T05:51:22;2.60;99.90
53264;DHT22;39153;52.680;6.172;2024-03-07T05:53:49;2.40;99.90
53264;DHT22;39153;52.680;6.172;2024-03-07T05:56:15;2.40;99.90
53264;DHT22;39153;52.680;6.172;2024-03-07T05:58:40;2.40;99.90
53264;DHT22;39153;52.680;6.172;2024-03-07T06:01:06;2.40;99.90
53264;DHT22;39153;52.680;6.172;2024-03-07T06:03:34;2.40;99.90
53264;DHT22;39153;52.680;6.172;2024-03-07T06:06:00;2.20;99.90
53264;DHT22;39153;52.680;6.172;2024-03-07T06:08:25;2.60;99.90
53264;DHT22;39153;52.680;6.172;2024-03-07T06:10:51;2.30;99.90
53264;DHT22;39153;52.680;6.172;2024-03-07T06:13:17;2.20;99.90
53264;DHT22;39153;52.680;6.172;2024-03-07T06:15:46;2.10;99.90
53264;DHT22;39153;52.680;6.172;2024-03-07T06:18:13;2.20;99.90
53264;DHT22;39153;52.680;6.172;2024-03-07T06:20:40;2.40;99.90
53264;DHT22;39153;52.680;6.172;2024-03-07T06:23:06;2.30;99.90
53264;DHT22;39153;52.680;6.172;2024-03-07T06:25:32;2.10;99.90
53264;DHT22;39153;52.680;6.172;2024-03-07T06:28:25;2.30;99.90
53264;DHT22;39153;52.680;6.172;2024-03-07T06:30:51;2.30;99.90
53264;DHT22;39153;52.680;6.172;2024-03-07T06:33:16;2.10;99.90
53264;DHT22;39153;52.680;6.172;2024-03-07T06:35:42;2.30;99.90
53264;DHT22;39153;52.680;6.172;2024-03-07T06:38:11;2.10;99.90
53264;DHT22;39153;52.680;6.172;2024-03-07T06:40:38;2.30;99.90
53264;DHT22;39153;52.680;6.172;2024-03-07T06:43:07;2.30;99.90
53264;DHT22;39153;52.680;6.172;2024-03-07T06:45:33;2.30;99.90
53264;DHT22;39153;52.680;6.172;2024-03-07T06:47:59;2.20;99.90
53264;DHT22;39153;52.680;6.172;2024-03-07T06:50:26;2.50;99.90
53264;DHT22;39153;52.680;6.172;2024-03-07T06:52:54;2.00;99.90
53264;DHT22;39153;52.680;6.172;2024-03-07T06:55:21;2.20;99.90
53264;DHT22;39153;52.680;6.172;2024-03-07T06:57:47;2.20;99.90
53264;DHT22;39153;52.680;6.172;2024-03-07T07:00:13;2.00;99.90
53264;DHT22;39153;52.680;6.172;2024-03-07T07:02:44;2.10;99.90
53264;DHT22;39153;52.680;6.172;2024-03-07T07:05:10;2.10;99.90
53264;DHT22;39153;52.680;6.172;2024-03-07T07:07:39;2.20;99.90
53264;DHT22;39153;52.680;6.172;2024-03-07T07:10:08;2.10;99.90
53264;DHT22;39153;52.680;6.172;2024-03-07T07:12:37;2.20;99.90
53264;DHT22;39153;52.680;6.172;2024-03-07T07:15:03;2.30;99.90
53264;DHT22;39153;52.680;6.172;2024-03-07T07:17:30;2.20;99.90
53264;DHT22;39153;52.680;6.172;2024-03-07T07:19:57;2.30;99.90
53264;DHT22;39153;52.680;6.172;2024-03-07T07:22:23;2.20;99.90
53264;DHT22;39153;52.680;6.172;2024-03-07T07:24:49;2.20;99.90
53264;DHT22;39153;52.680;6.172;2024-03-07T07:27:15;2.30;99.90
53264;DHT22;39153;52.680;6.172;2024-03-07T07:29:41;2.40;99.90
53264;DHT22;39153;52.680;6.172;2024-03-07T07:32:07;2.40;99.90
53264;DHT22;39153;52.680;6.172;2024-03-07T07:34:33;2.40;99.90
53264;DHT22;39153;52.680;6.172;2024-03-07T07:36:59;2.50;99.90
53264;DHT22;39153;52.680;6.172;2024-03-07T07:39:25;2.40;99.90
53264;DHT22;39153;52.680;6.172;2024-03-07T07:41:50;2.40;99.90
53264;DHT22;39153;52.680;6.172;2024-03-07T07:44:16;2.60;99.90
53264;DHT22;39153;52.680;6.172;2024-03-07T07:46:42;2.60;99.90
53264;DHT22;39153;52.680;6.172;2024-03-07T07:49:09;2.50;99.90
53264;DHT22;39153;52.680;6.172;2024-03-07T07:51:34;3.00;99.90
53264;DHT22;39153;52.680;6.172;2024-03-07T07:54:00;2.70;99.90
53264;DHT22;39153;52.680;6.172;2024-03-07T07:56:27;2.70;99.90
53264;DHT22;39153;52.680;6.172;2024-03-07T07:58:54;2.80;99.90
53264;DHT22;39153;52.680;6.172;2024-03-07T08:01:19;2.90;99.90
53264;DHT22;39153;52.680;6.172;2024-03-07T08:03:45;3.00;99.90
53264;DHT22;39153;52.680;6.172;2024-03-07T08:06:11;3.00;99.90
53264;DHT22;39153;52.680;6.172;2024-03-07T08:08:37;3.10;99.90
53264;DHT22;39153;52.680;6.172;2024-03-07T08:11:03;3.20;99.90
53264;DHT22;39153;52.680;6.172;2024-03-07T08:13:28;3.20;99.90
53264;DHT22;39153;52.680;6.172;2024-03-07T08:15:54;3.20;99.90
53264;DHT22;39153;52.680;6.172;2024-03-07T08:18:20;3.40;99.90
53264;DHT22;39153;52.680;6.172;2024-03-07T08:20:46;3.30;99.90
53264;DHT22;39153;52.680;6.172;2024-03-07T08:23:12;3.40;99.90
53264;DHT22;39153;52.680;6.172;2024-03-07T08:25:38;4.20;99.90
53264;DHT22;39153;52.680;6.172;2024-03-07T08:28:06;3.50;99.90
53264;DHT22;39153;52.680;6.172;2024-03-07T08:30:32;3.60;99.90
53264;DHT22;39153;52.680;6.172;2024-03-07T08:32:58;3.60;99.90
53264;DHT22;39153;52.680;6.172;2024-03-07T08:35:27;3.70;99.90
53264;DHT22;39153;52.680;6.172;2024-03-07T08:37:54;3.90;99.90
53264;DHT22;39153;52.680;6.172;2024-03-07T08:40:28;3.80;99.90
53264;DHT22;39153;52.680;6.172;2024-03-07T08:42:58;3.90;99.90
53264;DHT22;39153;52.680;6.172;2024-03-07T08:45:24;4.00;99.90
53264;DHT22;39153;52.680;6.172;2024-03-07T08:47:52;4.00;99.90
53264;DHT22;39153;52.680;6.172;2024-03-07T08:50:20;4.20;99.90
53264;DHT22;39153;52.680;6.172;2024-03-07T08:52:46;4.20;99.90
53264;DHT22;39153;52.680;6.172;2024-03-07T08:55:23;4.40;99.90
53264;DHT22;39153;52.680;6.172;2024-03-07T08:57:50;4.40;99.90
53264;DHT22;39153;52.680;6.172;2024-03-07T09:00:18;4.50;99.90
53264;DHT22;39153;52.680;6.172;2024-03-07T09:02:54;4.50;99.90
53264;DHT22;39153;52.680;6.172;2024-03-07T09:05:21;4.70;99.90
53264;DHT22;39153;52.680;6.172;2024-03-07T09:07:48;4.80;99.90
53264;DHT22;39153;52.680;6.172;2024-03-07T09:10:14;4.80;99.90
53264;DHT22;39153;52.680;6.172;2024-03-07T09:12:40;4.90;99.90
53264;DHT22;39153;52.680;6.172;2024-03-07T09:15:07;5.00;99.90
53264;DHT22;39153;52.680;6.172;2024-03-07T09:17:33;5.00;99.90
53264;DHT22;39153;52.680;6.172;2024-03-07T09:19:58;5.20;99.90
53264;DHT22;39153;52.680;6.172;2024-03-07T09:22:24;5.30;99.90
53264;DHT22;39153;52.680;6.172;2024-03-07T09:24:50;5.30;99.90
53264;DHT22;39153;52.680;6.172;2024-03-07T09:27:17;5.30;99.90
53264;DHT22;39153;52.680;6.172;2024-03-07T09:29:45;5.40;99.90
53264;DHT22;39153;52.680;6.172;2024-03-07T09:32:13;5.40;99.90
53264;DHT22;39153;52.680;6.172;2024-03-07T09:34:39;5.50;99.90
53264;DHT22;39153;52.680;6.172;2024-03-07T09:37:04;5.60;99.90
53264;DHT22;39153;52.680;6.172;2024-03-07T09:39:34;5.60;99.90
53264;DHT22;39153;52.680;6.172;2024-03-07T09:42:03;5.60;99.90
53264;DHT22;39153;52.680;6.172;2024-03-07T09:44:31;5.60;99.90
53264;DHT22;39153;52.680;6.172;2024-03-07T09:47:00;5.70;99.90
53264;DHT22;39153;52.680;6.172;2024-03-07T09:49:28;5.60;99.90
53264;DHT22;39153;52.680;6.172;2024-03-07T09:51:55;5.60;99.90
53264;DHT22;39153;52.680;6.172;2024-03-07T09:54:25;5.60;99.90
53264;DHT22;39153;52.680;6.172;2024-03-07T09:56:54;5.40;99.90
53264;DHT22;39153;52.680;6.172;2024-03-07T09:59:24;5.30;99.90
53264;DHT22;39153;52.680;6.172;2024-03-07T10:01:57;5.20;99.90
53264;DHT22;39153;52.680;6.172;2024-03-07T10:04:38;5.10;99.90
53264;DHT22;39153;52.680;6.172;2024-03-07T10:07:11;5.10;99.90
53264;DHT22;39153;52.680;6.172;2024-03-07T10:09:39;5.10;99.90
53264;DHT22;39153;52.680;6.172;2024-03-07T10:12:06;5.10;99.90
53264;DHT22;39153;52.680;6.172;2024-03-07T10:14:38;5.20;99.90
53264;DHT22;39153;52.680;6.172;2024-03-07T10:17:04;5.30;99.90
53264;DHT22;39153;52.680;6.172;2024-03-07T10:19:30;5.40;99.90
53264;DHT22;39153;52.680;6.172;2024-03-07T10:21:56;5.30;99.90
53264;DHT22;39153;52.680;6.172;2024-03-07T10:24:27;5.30;99.90
53264;DHT22;39153;52.680;6.172;2024-03-07T10:26:54;5.30;99.90
53264;DHT22;39153;52.680;6.172;2024-03-07T10:29:23;5.30;99.90
53264;DHT22;39153;52.680;6.172;2024-03-07T10:31:49;5.30;99.90
53264;DHT22;39153;52.680;6.172;2024-03-07T10:34:15;5.30;99.90
53264;DHT22;39153;52.680;6.172;2024-03-07T10:36:43;5.30;99.90
53264;DHT22;39153;52.680;6.172;2024-03-07T10:39:09;5.40;99.90
53264;DHT22;39153;52.680;6.172;2024-03-07T10:41:46;5.40;99.90
53264;DHT22;39153;52.680;6.172;2024-03-07T10:44:25;5.50;99.90
53264;DHT22;39153;52.680;6.172;2024-03-07T10:46:53;5.60;99.90
53264;DHT22;39153;52.680;6.172;2024-03-07T10:49:20;5.70;99.90
53264;DHT22;39153;52.680;6.172;2024-03-07T10:57:28;5.90;99.90
53264;DHT22;39153;52.680;6.172;2024-03-07T11:00:02;6.00;99.90
53264;DHT22;39153;52.680;6.172;2024-03-07T11:02:50;6.00;99.90
53264;DHT22;39153;52.680;6.172;2024-03-07T11:05:19;6.10;99.90
53264;DHT22;39153;52.680;6.172;2024-03-07T11:07:45;6.30;99.90
53264;DHT22;39153;52.680;6.172;2024-03-07T11:10:13;6.40;99.90
53264;DHT22;39153;52.680;6.172;2024-03-07T11:12:44;6.40;99.90
53264;DHT22;39153;52.680;6.172;2024-03-07T11:15:12;6.50;99.90
53264;DHT22;39153;52.680;6.172;2024-03-07T11:17:44;6.50;99.90
53264;DHT22;39153;52.680;6.172;2024-03-07T11:20:34;6.70;99.90
53264;DHT22;39153;52.680;6.172;2024-03-07T11:23:00;6.90;99.90
53264;DHT22;39153;52.680;6.172;2024-03-07T11:25:28;7.10;99.90
53264;DHT22;39153;52.680;6.172;2024-03-07T11:27:59;7.30;99.90
53264;DHT22;39153;52.680;6.172;2024-03-07T11:30:25;7.50;99.90
53264;DHT22;39153;52.680;6.172;2024-03-07T11:32:52;7.60;99.90
53264;DHT22;39153;52.680;6.172;2024-03-07T11:35:31;7.80;99.90
53264;DHT22;39153;52.680;6.172;2024-03-07T11:37:59;7.90;99.90
53264;DHT22;39153;52.680;6.172;2024-03-07T11:42:52;7.80;99.90
53264;DHT22;39153;52.680;6.172;2024-03-07T11:45:20;7.70;99.90
53264;DHT22;39153;52.680;6.172;2024-03-07T11:47:55;7.60;99.90
53264;DHT22;39153;52.680;6.172;2024-03-07T11:50:28;7.60;99.90
53264;DHT22;39153;52.680;6.172;2024-03-07T11:52:55;7.70;99.90
53264;DHT22;39153;52.680;6.172;2024-03-07T11:55:24;7.70;99.90
53264;DHT22;39153;52.680;6.172;2024-03-07T11:57:50;7.70;99.90
53264;DHT22;39153;52.680;6.172;2024-03-07T12:00:18;7.70;99.90
53264;DHT22;39153;52.680;6.172;2024-03-07T12:02:44;7.70;99.90
53264;DHT22;39153;52.680;6.172;2024-03-07T12:05:10;7.70;99.90
53264;DHT22;39153;52.680;6.172;2024-03-07T12:07:36;8.00;99.90
53264;DHT22;39153;52.680;6.172;2024-03-07T12:10:02;8.20;99.90
53264;DHT22;39153;52.680;6.172;2024-03-07T12:12:32;8.40;99.90
53264;DHT22;39153;52.680;6.172;2024-03-07T12:14:58;8.60;99.90
53264;DHT22;39153;52.680;6.172;2024-03-07T12:17:25;8.50;99.90
53264;DHT22;39153;52.680;6.172;2024-03-07T12:19:51;8.50;99.90
53264;DHT22;39153;52.680;6.172;2024-03-07T12:22:19;8.60;99.90
53264;DHT22;39153;52.680;6.172;2024-03-07T12:25:00;8.70;99.90
53264;DHT22;39153;52.680;6.172;2024-03-07T12:27:28;8.60;99.90
53264;DHT22;39153;52.680;6.172;2024-03-07T12:29:55;8.50;99.90
53264;DHT22;39153;52.680;6.172;2024-03-07T12:32:20;8.50;99.90
53264;DHT22;39153;52.680;6.172;2024-03-07T12:34:46;8.50;99.90
53264;DHT22;39153;52.680;6.172;2024-03-07T12:37:13;8.40;99.90
53264;DHT22;39153;52.680;6.172;2024-03-07T12:39:45;8.40;99.90
53264;DHT22;39153;52.680;6.172;2024-03-07T12:42:18;8.40;99.90
53264;DHT22;39153;52.680;6.172;2024-03-07T12:44:45;8.30;99.90
53264;DHT22;39153;52.680;6.172;2024-03-07T12:47:15;8.20;99.90
53264;DHT22;39153;52.680;6.172;2024-03-07T12:49:42;8.20;99.90
53264;DHT22;39153;52.680;6.172;2024-03-07T12:52:08;8.20;99.90
53264;DHT22;39153;52.680;6.172;2024-03-07T12:54:35;8.10;99.90
53264;DHT22;39153;52.680;6.172;2024-03-07T12:57:09;8.10;99.90
53264;DHT22;39153;52.680;6.172;2024-03-07T13:12:03;8.10;99.90
53264;DHT22;39153;52.680;6.172;2024-03-07T13:14:33;8.60;99.90
53264;DHT22;39153;52.680;6.172;2024-03-07T13:17:03;8.40;99.90
53264;DHT22;39153;52.680;6.172;2024-03-07T13:19:30;8.40;99.90
53264;DHT22;39153;52.680;6.172;2024-03-07T13:21:56;8.30;99.90
53264;DHT22;39153;52.680;6.172;2024-03-07T13:24:23;8.20;99.90
53264;DHT22;39153;52.680;6.172;2024-03-07T13:26:49;8.20;99.90
53264;DHT22;39153;52.680;6.172;2024-03-07T13:29:16;8.10;99.90
53264;DHT22;39153;52.680;6.172;2024-03-07T13:31:45;8.10;99.90
53264;DHT22;39153;52.680;6.172;2024-03-07T13:34:11;8.10;99.90
53264;DHT22;39153;52.680;6.172;2024-03-07T13:36:44;8.00;99.90
53264;DHT22;39153;52.680;6.172;2024-03-07T13:39:11;8.00;99.90
53264;DHT22;39153;52.680;6.172;2024-03-07T13:41:37;7.90;99.90
53264;DHT22;39153;52.680;6.172;2024-03-07T13:44:04;7.90;99.90
53264;DHT22;39153;52.680;6.172;2024-03-07T13:46:30;7.80;99.90
53264;DHT22;39153;52.680;6.172;2024-03-07T13:48:59;7.80;99.90
53264;DHT22;39153;52.680;6.172;2024-03-07T13:51:36;7.90;99.90
53264;DHT22;39153;52.680;6.172;2024-03-07T13:54:03;7.90;99.90
53264;DHT22;39153;52.680;6.172;2024-03-07T13:57:03;7.90;99.90
53264;DHT22;39153;52.680;6.172;2024-03-07T14:26:13;7.70;99.90
53264;DHT22;39153;52.680;6.172;2024-03-07T14:31:07;7.70;99.90
53264;DHT22;39153;52.680;6.172;2024-03-07T14:36:36;7.60;99.90
53264;DHT22;39153;52.680;6.172;2024-03-07T14:39:02;7.60;99.90
53264;DHT22;39153;52.680;6.172;2024-03-07T14:41:49;7.60;99.90
53264;DHT22;39153;52.680;6.172;2024-03-07T14:44:16;7.60;99.90
53264;DHT22;39153;52.680;6.172;2024-03-07T14:46:43;7.60;99.90
53264;DHT22;39153;52.680;6.172;2024-03-07T14:49:14;7.60;99.90
53264;DHT22;39153;52.680;6.172;2024-03-07T14:51:41;7.50;99.90
53264;DHT22;39153;52.680;6.172;2024-03-07T14:54:08;7.60;99.90
53264;DHT22;39153;52.680;6.172;2024-03-07T14:56:34;7.80;99.90
53264;DHT22;39153;52.680;6.172;2024-03-07T14:59:00;7.50;99.90
53264;DHT22;39153;52.680;6.172;2024-03-07T15:01:28;7.50;99.90
53264;DHT22;39153;52.680;6.172;2024-03-07T15:03:57;7.50;99.90
53264;DHT22;39153;52.680;6.172;2024-03-07T15:06:23;7.50;99.90
53264;DHT22;39153;52.680;6.172;2024-03-07T15:08:49;7.50;99.90
53264;DHT22;39153;52.680;6.172;2024-03-07T15:11:23;7.50;99.90
53264;DHT22;39153;52.680;6.172;2024-03-07T15:13:52;7.40;99.90
53264;DHT22;39153;52.680;6.172;2024-03-07T15:16:20;7.40;99.90
53264;DHT22;39153;52.680;6.172;2024-03-07T15:18:46;7.40;99.90
53264;DHT22;39153;52.680;6.172;2024-03-07T15:21:12;7.40;99.90
53264;DHT22;39153;52.680;6.172;2024-03-07T15:23:41;7.40;99.90
53264;DHT22;39153;52.680;6.172;2024-03-07T15:26:08;7.30;99.90
53264;DHT22;39153;52.680;6.172;2024-03-07T15:28:33;7.30;99.90
53264;DHT22;39153;52.680;6.172;2024-03-07T15:31:01;7.30;99.90
53264;DHT22;39153;52.680;6.172;2024-03-07T15:33:34;7.30;99.90
53264;DHT22;39153;52.680;6.172;2024-03-07T15:36:00;7.30;99.90
53264;DHT22;39153;52.680;6.172;2024-03-07T15:38:26;7.20;99.90
53264;DHT22;39153;52.680;6.172;2024-03-07T15:41:01;7.20;99.90
53264;DHT22;39153;52.680;6.172;2024-03-07T15:43:27;7.20;99.90
53264;DHT22;39153;52.680;6.172;2024-03-07T15:45:54;7.20;99.90
53264;DHT22;39153;52.680;6.172;2024-03-07T15:48:23;7.20;99.90
53264;DHT22;39153;52.680;6.172;2024-03-07T15:50:53;7.10;99.90
53264;DHT22;39153;52.680;6.172;2024-03-07T15:53:19;7.20;99.90
53264;DHT22;39153;52.680;6.172;2024-03-07T15:55:45;7.20;99.90
53264;DHT22;39153;52.680;6.172;2024-03-07T15:58:11;7.20;99.90
53264;DHT22;39153;52.680;6.172;2024-03-07T16:00:38;7.20;99.90
53264;DHT22;39153;52.680;6.172;2024-03-07T16:03:05;7.10;99.90
53264;DHT22;39153;52.680;6.172;2024-03-07T16:05:37;7.10;99.90
53264;DHT22;39153;52.680;6.172;2024-03-07T16:08:05;7.10;99.90
53264;DHT22;39153;52.680;6.172;2024-03-07T16:10:36;7.10;99.90
53264;DHT22;39153;52.680;6.172;2024-03-07T16:13:03;7.10;99.90
53264;DHT22;39153;52.680;6.172;2024-03-07T16:15:33;7.10;99.90
53264;DHT22;39153;52.680;6.172;2024-03-07T16:17:59;7.10;99.90
53264;DHT22;39153;52.680;6.172;2024-03-07T16:20:29;7.00;99.90
53264;DHT22;39153;52.680;6.172;2024-03-07T16:22:55;7.00;99.90
53264;DHT22;39153;52.680;6.172;2024-03-07T16:25:23;7.00;99.90
53264;DHT22;39153;52.680;6.172;2024-03-07T16:27:50;7.00;99.90
53264;DHT22;39153;52.680;6.172;2024-03-07T16:30:22;7.00;99.90
53264;DHT22;39153;52.680;6.172;2024-03-07T16:32:49;7.00;99.90
53264;DHT22;39153;52.680;6.172;2024-03-07T16:35:16;7.00;99.90
53264;DHT22;39153;52.680;6.172;2024-03-07T16:37:44;7.00;99.90
53264;DHT22;39153;52.680;6.172;2024-03-07T16:40:11;7.10;99.90